EDW211 LGSA-LSZH
Flight info
| Callsign | EDW211 |
|---|---|
| Flight time | 2h 28m |
| Altitude | 24000 |
| Route | SOKRI J65 TRL M601 KFN M872 LATAN/N0453F360 DCT ROBOT DCT OSDAX DCT AFCAM DCT ARSOB/N0398F180 L612 MASEG DCT BAKEP DCT NEVMO DCT OSKOR DCT EVRIP DCT CANNE Z651 KELIP |
| Aircraft | A320/M-SDE2E3FGHIJ1RWXY/LB1 |
Departure
| Time | 2026-05-06 09:10 |
|---|---|
| Airport | Chania International Airport (LGSA) |
Arrival
| Time | 2026-05-06 11:38 |
|---|---|
| Airport | Zürich Airport (LSZH) |
| Time | Latitude | Longitude | Altitude | Speed | Heading |
|---|---|---|---|---|---|
| 2026-05-06 08:38 | 35.53907 | 24.13952 | 498 ft | 0 kts | 21° |
| 2026-05-06 09:00 | 35.53894 | 24.13946 | 492 ft | 4 kts | 32° |
| 2026-05-06 09:00 | 35.53873 | 24.13925 | 495 ft | 4 kts | 44° |
| 2026-05-06 09:00 | 35.53856 | 24.13907 | 491 ft | 4 kts | 41° |
| 2026-05-06 09:00 | 35.53841 | 24.13883 | 488 ft | 4 kts | 83° |
| 2026-05-06 09:01 | 35.53843 | 24.13859 | 498 ft | 1 kts | 111° |
| 2026-05-06 09:01 | 35.53844 | 24.13855 | 498 ft | 0 kts | 111° |
| 2026-05-06 09:03 | 35.53839 | 24.13871 | 490 ft | 5 kts | 111° |
| 2026-05-06 09:04 | 35.53818 | 24.13936 | 491 ft | 12 kts | 112° |
| 2026-05-06 09:04 | 35.53760 | 24.13999 | 492 ft | 14 kts | 189° |
| 2026-05-06 09:04 | 35.53671 | 24.14003 | 490 ft | 16 kts | 117° |
| 2026-05-06 09:04 | 35.53624 | 24.14146 | 498 ft | 22 kts | 111° |
| 2026-05-06 09:05 | 35.53559 | 24.14345 | 494 ft | 27 kts | 111° |
| 2026-05-06 09:05 | 35.53489 | 24.14563 | 490 ft | 29 kts | 111° |
| 2026-05-06 09:05 | 35.53425 | 24.14756 | 490 ft | 24 kts | 112° |
| 2026-05-06 09:05 | 35.53360 | 24.14956 | 496 ft | 26 kts | 111° |
| 2026-05-06 09:06 | 35.53290 | 24.15173 | 491 ft | 28 kts | 112° |
| 2026-05-06 09:06 | 35.53220 | 24.15389 | 496 ft | 26 kts | 111° |
| 2026-05-06 09:06 | 35.53149 | 24.15605 | 489 ft | 28 kts | 111° |
| 2026-05-06 09:06 | 35.53078 | 24.15825 | 497 ft | 27 kts | 111° |
| 2026-05-06 09:07 | 35.53006 | 24.16046 | 492 ft | 29 kts | 111° |
| 2026-05-06 09:07 | 35.52971 | 24.16155 | 491 ft | 29 kts | 111° |
| 2026-05-06 09:07 | 35.52897 | 24.16386 | 493 ft | 29 kts | 112° |
| 2026-05-06 09:07 | 35.52823 | 24.16611 | 498 ft | 29 kts | 111° |
| 2026-05-06 09:08 | 35.52759 | 24.16807 | 498 ft | 18 kts | 113° |
| 2026-05-06 09:08 | 35.52683 | 24.16866 | 494 ft | 14 kts | 200° |
| 2026-05-06 09:08 | 35.52597 | 24.16824 | 496 ft | 13 kts | 202° |
| 2026-05-06 09:08 | 35.52586 | 24.16766 | 493 ft | 0 kts | 294° |
| 2026-05-06 09:09 | 35.52618 | 24.16674 | 492 ft | 41 kts | 293° |
| 2026-05-06 09:09 | 35.52818 | 24.16062 | 494 ft | 110 kts | 292° |
| 2026-05-06 09:09 | 35.53175 | 24.14969 | 490 ft | 163 kts | 292° |
| 2026-05-06 09:09 | 35.53611 | 24.13603 | 918 ft | 173 kts | 292° |
| 2026-05-06 09:10 | 35.54046 | 24.12226 | 1590 ft | 173 kts | 292° |
| 2026-05-06 09:10 | 35.54494 | 24.10849 | 2262 ft | 174 kts | 293° |
| 2026-05-06 09:10 | 35.54953 | 24.09483 | 2937 ft | 174 kts | 293° |
| 2026-05-06 09:10 | 35.55665 | 24.08219 | 3305 ft | 192 kts | 321° |
| 2026-05-06 09:11 | 35.56952 | 24.07577 | 3558 ft | 214 kts | 357° |
| 2026-05-06 09:11 | 35.58474 | 24.07759 | 4064 ft | 223 kts | 7° |
| 2026-05-06 09:11 | 35.60032 | 24.08013 | 4748 ft | 226 kts | 7° |
| 2026-05-06 09:11 | 35.61601 | 24.08072 | 5472 ft | 227 kts | 349° |
| 2026-05-06 09:12 | 35.63070 | 24.07354 | 6059 ft | 236 kts | 325° |
| 2026-05-06 09:12 | 35.64247 | 24.05818 | 6365 ft | 261 kts | 307° |
| 2026-05-06 09:12 | 35.65462 | 24.04073 | 6922 ft | 274 kts | 313° |
| 2026-05-06 09:12 | 35.66804 | 24.02381 | 7701 ft | 278 kts | 315° |
| 2026-05-06 09:13 | 35.68188 | 24.00698 | 8498 ft | 282 kts | 316° |
| 2026-05-06 09:13 | 35.69589 | 23.98987 | 9282 ft | 286 kts | 315° |
| 2026-05-06 09:13 | 35.70997 | 23.97241 | 10073 ft | 289 kts | 315° |
| 2026-05-06 09:13 | 35.72434 | 23.95430 | 10509 ft | 306 kts | 315° |
| 2026-05-06 09:14 | 35.73971 | 23.93475 | 10725 ft | 330 kts | 314° |
| 2026-05-06 09:14 | 35.75618 | 23.91368 | 10901 ft | 353 kts | 314° |
| 2026-05-06 09:14 | 35.77357 | 23.89132 | 11271 ft | 366 kts | 314° |
| 2026-05-06 09:14 | 35.79129 | 23.86847 | 11899 ft | 371 kts | 314° |
| 2026-05-06 09:15 | 35.80918 | 23.84535 | 12572 ft | 374 kts | 314° |
| 2026-05-06 09:15 | 35.82715 | 23.82205 | 13247 ft | 376 kts | 314° |
| 2026-05-06 09:15 | 35.84526 | 23.79855 | 13897 ft | 379 kts | 314° |
| 2026-05-06 09:15 | 35.86322 | 23.77526 | 14519 ft | 382 kts | 314° |
| 2026-05-06 09:16 | 35.88186 | 23.75110 | 15126 ft | 385 kts | 314° |
| 2026-05-06 09:16 | 35.90035 | 23.72714 | 15725 ft | 387 kts | 314° |
| 2026-05-06 09:16 | 35.91899 | 23.70297 | 16314 ft | 390 kts | 314° |
| 2026-05-06 09:16 | 35.93774 | 23.67865 | 16900 ft | 392 kts | 314° |
| 2026-05-06 09:17 | 35.95663 | 23.65412 | 17442 ft | 396 kts | 313° |
| 2026-05-06 09:17 | 35.97565 | 23.62939 | 17985 ft | 398 kts | 313° |
| 2026-05-06 09:17 | 35.99453 | 23.60484 | 18512 ft | 401 kts | 313° |
| 2026-05-06 09:17 | 36.01405 | 23.57944 | 19032 ft | 403 kts | 313° |
| 2026-05-06 09:18 | 36.03342 | 23.55424 | 19529 ft | 406 kts | 313° |
| 2026-05-06 09:18 | 36.05291 | 23.52887 | 19998 ft | 408 kts | 313° |
| 2026-05-06 09:18 | 36.07224 | 23.50369 | 20448 ft | 411 kts | 313° |
| 2026-05-06 09:18 | 36.09197 | 23.47791 | 20885 ft | 414 kts | 313° |
| 2026-05-06 09:19 | 36.11177 | 23.45198 | 21315 ft | 416 kts | 313° |
| 2026-05-06 09:19 | 36.13168 | 23.42590 | 21729 ft | 418 kts | 313° |
| 2026-05-06 09:19 | 36.15170 | 23.39970 | 22113 ft | 420 kts | 313° |
| 2026-05-06 09:19 | 36.17183 | 23.37339 | 22490 ft | 422 kts | 313° |
| 2026-05-06 09:20 | 36.18550 | 23.35549 | 22726 ft | 424 kts | 313° |
| 2026-05-06 09:20 | 36.21237 | 23.32024 | 23196 ft | 426 kts | 313° |
| 2026-05-06 09:20 | 36.22613 | 23.30216 | 23424 ft | 428 kts | 313° |
| 2026-05-06 09:20 | 36.24661 | 23.27521 | 23770 ft | 430 kts | 313° |
| 2026-05-06 09:21 | 36.26712 | 23.24822 | 24107 ft | 432 kts | 313° |
| 2026-05-06 09:21 | 36.28775 | 23.22104 | 24421 ft | 434 kts | 313° |
| 2026-05-06 09:21 | 36.30847 | 23.19371 | 24725 ft | 436 kts | 313° |
| 2026-05-06 09:21 | 36.32929 | 23.16624 | 25026 ft | 438 kts | 313° |
| 2026-05-06 09:22 | 36.34991 | 23.13902 | 25309 ft | 440 kts | 313° |
| 2026-05-06 09:22 | 36.37090 | 23.11132 | 25581 ft | 442 kts | 313° |
| 2026-05-06 09:22 | 36.39224 | 23.08316 | 25850 ft | 443 kts | 313° |
| 2026-05-06 09:22 | 36.41341 | 23.05519 | 26118 ft | 445 kts | 313° |
| 2026-05-06 09:23 | 36.43460 | 23.02713 | 26347 ft | 447 kts | 313° |
| 2026-05-06 09:23 | 36.45586 | 22.99894 | 26578 ft | 448 kts | 313° |
| 2026-05-06 09:23 | 36.47694 | 22.97096 | 26803 ft | 450 kts | 313° |
| 2026-05-06 09:23 | 36.49865 | 22.94213 | 27031 ft | 452 kts | 313° |
| 2026-05-06 09:24 | 36.52014 | 22.91361 | 27288 ft | 452 kts | 313° |
| 2026-05-06 09:24 | 36.54162 | 22.88509 | 27598 ft | 451 kts | 313° |
| 2026-05-06 09:24 | 36.56302 | 22.85670 | 27897 ft | 450 kts | 313° |
| 2026-05-06 09:24 | 36.58440 | 22.82829 | 28190 ft | 449 kts | 313° |
| 2026-05-06 09:25 | 36.60546 | 22.80026 | 28473 ft | 449 kts | 313° |
| 2026-05-06 09:25 | 36.62673 | 22.77184 | 28766 ft | 448 kts | 313° |
| 2026-05-06 09:25 | 36.64796 | 22.74343 | 29068 ft | 448 kts | 313° |
| 2026-05-06 09:25 | 36.66915 | 22.71508 | 29358 ft | 447 kts | 313° |
| 2026-05-06 09:26 | 36.69033 | 22.68672 | 29644 ft | 447 kts | 313° |
| 2026-05-06 09:26 | 36.71143 | 22.65840 | 29934 ft | 446 kts | 313° |
| 2026-05-06 09:26 | 36.73255 | 22.63006 | 30218 ft | 446 kts | 313° |
| 2026-05-06 09:26 | 36.75361 | 22.60183 | 30503 ft | 445 kts | 313° |
| 2026-05-06 09:27 | 36.77472 | 22.57356 | 30797 ft | 444 kts | 313° |
| 2026-05-06 09:27 | 36.79571 | 22.54544 | 31086 ft | 443 kts | 313° |
| 2026-05-06 09:27 | 36.81665 | 22.51731 | 31365 ft | 442 kts | 313° |
| 2026-05-06 09:27 | 36.83755 | 22.48920 | 31640 ft | 441 kts | 313° |
| 2026-05-06 09:28 | 36.85837 | 22.46113 | 31947 ft | 440 kts | 313° |
| 2026-05-06 09:28 | 36.87917 | 22.43308 | 32227 ft | 440 kts | 313° |
| 2026-05-06 09:28 | 36.89991 | 22.40507 | 32505 ft | 439 kts | 313° |
| 2026-05-06 09:28 | 36.92060 | 22.37713 | 32780 ft | 438 kts | 312° |
| 2026-05-06 09:29 | 36.94126 | 22.34920 | 33063 ft | 437 kts | 312° |
| 2026-05-06 09:29 | 36.96185 | 22.32132 | 33339 ft | 436 kts | 312° |
| 2026-05-06 09:29 | 36.98241 | 22.29346 | 33603 ft | 435 kts | 312° |
| 2026-05-06 09:29 | 37.00289 | 22.26567 | 33874 ft | 434 kts | 312° |
| 2026-05-06 09:30 | 37.02333 | 22.23790 | 34140 ft | 433 kts | 312° |
| 2026-05-06 09:30 | 37.04376 | 22.21019 | 34404 ft | 433 kts | 312° |
| 2026-05-06 09:30 | 37.06415 | 22.18255 | 34659 ft | 432 kts | 312° |
| 2026-05-06 09:30 | 37.08454 | 22.15491 | 34911 ft | 432 kts | 312° |
| 2026-05-06 09:31 | 37.10485 | 22.12733 | 35150 ft | 431 kts | 312° |
| 2026-05-06 09:31 | 37.12511 | 22.09976 | 35378 ft | 430 kts | 312° |
| 2026-05-06 09:31 | 37.14536 | 22.07211 | 35602 ft | 429 kts | 312° |
| 2026-05-06 09:31 | 37.16554 | 22.04458 | 35812 ft | 429 kts | 312° |
| 2026-05-06 09:32 | 37.18568 | 22.01704 | 36013 ft | 429 kts | 312° |
| 2026-05-06 09:32 | 37.22614 | 21.96156 | 36110 ft | 434 kts | 311° |
| 2026-05-06 09:33 | 37.26700 | 21.90556 | 36108 ft | 436 kts | 311° |
| 2026-05-06 09:33 | 37.30797 | 21.84944 | 36111 ft | 435 kts | 311° |
| 2026-05-06 09:34 | 37.34883 | 21.79332 | 36107 ft | 435 kts | 311° |
| 2026-05-06 09:34 | 37.38961 | 21.73719 | 36122 ft | 435 kts | 311° |
| 2026-05-06 09:35 | 37.43044 | 21.68090 | 36122 ft | 435 kts | 311° |
| 2026-05-06 09:35 | 37.47120 | 21.62465 | 36118 ft | 435 kts | 311° |
| 2026-05-06 09:36 | 37.51187 | 21.56824 | 36118 ft | 435 kts | 311° |
| 2026-05-06 09:36 | 37.55248 | 21.51188 | 36122 ft | 435 kts | 311° |
| 2026-05-06 09:37 | 37.59318 | 21.45543 | 36130 ft | 435 kts | 311° |
| 2026-05-06 09:37 | 37.63383 | 21.39887 | 36127 ft | 435 kts | 311° |
| 2026-05-06 09:38 | 37.67422 | 21.34257 | 36137 ft | 436 kts | 311° |
| 2026-05-06 09:38 | 37.71486 | 21.28584 | 36137 ft | 436 kts | 311° |
| 2026-05-06 09:39 | 37.75555 | 21.22902 | 36130 ft | 436 kts | 311° |
| 2026-05-06 09:39 | 37.79619 | 21.17218 | 36141 ft | 436 kts | 311° |
| 2026-05-06 09:40 | 37.83677 | 21.11518 | 36132 ft | 436 kts | 311° |
| 2026-05-06 09:40 | 37.89757 | 21.02950 | 36138 ft | 436 kts | 311° |
| 2026-05-06 09:41 | 37.93811 | 20.97231 | 36134 ft | 436 kts | 311° |
| 2026-05-06 09:41 | 37.97863 | 20.91513 | 36131 ft | 436 kts | 311° |
| 2026-05-06 09:42 | 38.01914 | 20.85779 | 36126 ft | 437 kts | 311° |
| 2026-05-06 09:42 | 38.05971 | 20.80034 | 36132 ft | 437 kts | 311° |
| 2026-05-06 09:43 | 38.10018 | 20.74298 | 36140 ft | 437 kts | 311° |
| 2026-05-06 09:43 | 38.14065 | 20.68540 | 36134 ft | 437 kts | 311° |
| 2026-05-06 09:44 | 38.18103 | 20.62776 | 36132 ft | 437 kts | 311° |
| 2026-05-06 09:44 | 38.22142 | 20.57004 | 36133 ft | 437 kts | 311° |
| 2026-05-06 09:45 | 38.26182 | 20.51221 | 36136 ft | 437 kts | 311° |
| 2026-05-06 09:45 | 38.30230 | 20.45432 | 36130 ft | 438 kts | 311° |
| 2026-05-06 09:46 | 38.34271 | 20.39644 | 36129 ft | 438 kts | 310° |
| 2026-05-06 09:46 | 38.38308 | 20.33836 | 36126 ft | 437 kts | 310° |
| 2026-05-06 09:47 | 38.42334 | 20.28021 | 36134 ft | 437 kts | 310° |
| 2026-05-06 09:47 | 38.46331 | 20.22242 | 36132 ft | 437 kts | 310° |
| 2026-05-06 09:48 | 38.50362 | 20.16425 | 36125 ft | 438 kts | 310° |
| 2026-05-06 09:48 | 38.54392 | 20.10602 | 36127 ft | 437 kts | 310° |
| 2026-05-06 09:49 | 38.58408 | 20.04770 | 36127 ft | 437 kts | 310° |
| 2026-05-06 09:49 | 38.62425 | 19.98924 | 36134 ft | 437 kts | 310° |
| 2026-05-06 09:50 | 38.66437 | 19.93072 | 36121 ft | 438 kts | 310° |
| 2026-05-06 09:50 | 38.70452 | 19.87209 | 36120 ft | 438 kts | 310° |
| 2026-05-06 09:51 | 38.74465 | 19.81342 | 36111 ft | 438 kts | 310° |
| 2026-05-06 09:51 | 38.78476 | 19.75466 | 36110 ft | 438 kts | 310° |
| 2026-05-06 09:52 | 38.82454 | 19.69620 | 36112 ft | 438 kts | 310° |
| 2026-05-06 09:52 | 38.86457 | 19.63737 | 36109 ft | 438 kts | 310° |
| 2026-05-06 09:53 | 38.90462 | 19.57848 | 36112 ft | 438 kts | 310° |
| 2026-05-06 09:53 | 38.94463 | 19.51952 | 36109 ft | 438 kts | 310° |
| 2026-05-06 09:54 | 38.98457 | 19.46047 | 36102 ft | 438 kts | 310° |
| 2026-05-06 09:54 | 39.02453 | 19.40125 | 36102 ft | 438 kts | 310° |
| 2026-05-06 09:55 | 39.06441 | 19.34204 | 36099 ft | 438 kts | 310° |
| 2026-05-06 09:55 | 39.10428 | 19.28271 | 36098 ft | 438 kts | 310° |
| 2026-05-06 09:56 | 39.14409 | 19.22333 | 36100 ft | 438 kts | 309° |
| 2026-05-06 09:56 | 39.18389 | 19.16387 | 36096 ft | 438 kts | 310° |
| 2026-05-06 09:57 | 39.22378 | 19.10439 | 36096 ft | 438 kts | 309° |
| 2026-05-06 09:57 | 39.26357 | 19.04486 | 36100 ft | 438 kts | 309° |
| 2026-05-06 09:58 | 39.30501 | 18.98789 | 36096 ft | 439 kts | 319° |
| 2026-05-06 09:58 | 39.35246 | 18.93802 | 36091 ft | 440 kts | 319° |
| 2026-05-06 09:59 | 39.39989 | 18.88798 | 36091 ft | 440 kts | 319° |
| 2026-05-06 09:59 | 39.44729 | 18.83787 | 36089 ft | 440 kts | 319° |
| 2026-05-06 10:00 | 39.49471 | 18.78763 | 36084 ft | 440 kts | 319° |
| 2026-05-06 10:00 | 39.54214 | 18.73739 | 36085 ft | 441 kts | 319° |
| 2026-05-06 10:01 | 39.58956 | 18.68697 | 36085 ft | 442 kts | 319° |
| 2026-05-06 10:01 | 39.63705 | 18.63647 | 36083 ft | 442 kts | 319° |
| 2026-05-06 10:02 | 39.68454 | 18.58582 | 36083 ft | 442 kts | 319° |
| 2026-05-06 10:02 | 39.73196 | 18.53514 | 36082 ft | 442 kts | 319° |
| 2026-05-06 10:03 | 39.77941 | 18.48439 | 36082 ft | 442 kts | 319° |
| 2026-05-06 10:03 | 39.82650 | 18.43389 | 36081 ft | 442 kts | 319° |
| 2026-05-06 10:04 | 39.87389 | 18.38298 | 36083 ft | 442 kts | 319° |
| 2026-05-06 10:04 | 39.92134 | 18.33195 | 36082 ft | 442 kts | 319° |
| 2026-05-06 10:05 | 39.96872 | 18.28090 | 36080 ft | 442 kts | 319° |
| 2026-05-06 10:05 | 40.01616 | 18.22975 | 36078 ft | 442 kts | 319° |
| 2026-05-06 10:06 | 40.06355 | 18.17853 | 36077 ft | 442 kts | 319° |
| 2026-05-06 10:06 | 40.11083 | 18.12721 | 36075 ft | 442 kts | 319° |
| 2026-05-06 10:07 | 40.15811 | 18.07581 | 36074 ft | 442 kts | 319° |
| 2026-05-06 10:07 | 40.20541 | 18.02434 | 36073 ft | 442 kts | 318° |
| 2026-05-06 10:08 | 40.25266 | 17.97280 | 36073 ft | 442 kts | 318° |
| 2026-05-06 10:08 | 40.29992 | 17.92122 | 36074 ft | 442 kts | 318° |
| 2026-05-06 10:09 | 40.33922 | 17.87825 | 36073 ft | 443 kts | 318° |
| 2026-05-06 10:09 | 40.38647 | 17.82643 | 36074 ft | 443 kts | 318° |
| 2026-05-06 10:10 | 40.43370 | 17.77462 | 36075 ft | 443 kts | 318° |
| 2026-05-06 10:10 | 40.48091 | 17.72264 | 36075 ft | 443 kts | 318° |
| 2026-05-06 10:11 | 40.52810 | 17.67058 | 36074 ft | 443 kts | 318° |
| 2026-05-06 10:11 | 40.57526 | 17.61849 | 36071 ft | 443 kts | 318° |
| 2026-05-06 10:12 | 40.62244 | 17.56628 | 36075 ft | 443 kts | 318° |
| 2026-05-06 10:12 | 40.66960 | 17.51399 | 36075 ft | 443 kts | 318° |
| 2026-05-06 10:13 | 40.71619 | 17.46075 | 36075 ft | 442 kts | 312° |
| 2026-05-06 10:13 | 40.75904 | 17.40254 | 36074 ft | 442 kts | 312° |
| 2026-05-06 10:14 | 40.80192 | 17.34427 | 36072 ft | 443 kts | 312° |
| 2026-05-06 10:14 | 40.84476 | 17.28589 | 36062 ft | 443 kts | 312° |
| 2026-05-06 10:15 | 40.88728 | 17.22774 | 36064 ft | 443 kts | 312° |
| 2026-05-06 10:15 | 40.93003 | 17.16908 | 36059 ft | 443 kts | 312° |
| 2026-05-06 10:16 | 40.97280 | 17.11036 | 36063 ft | 443 kts | 312° |
| 2026-05-06 10:16 | 41.01556 | 17.05166 | 36053 ft | 443 kts | 312° |
| 2026-05-06 10:17 | 41.05826 | 16.99286 | 36050 ft | 443 kts | 312° |
| 2026-05-06 10:17 | 41.10096 | 16.93385 | 36048 ft | 443 kts | 312° |
| 2026-05-06 10:18 | 41.14368 | 16.87486 | 36034 ft | 443 kts | 312° |
| 2026-05-06 10:18 | 41.18637 | 16.81573 | 36030 ft | 444 kts | 312° |
| 2026-05-06 10:19 | 41.22906 | 16.75647 | 36031 ft | 444 kts | 311° |
| 2026-05-06 10:19 | 41.27166 | 16.69704 | 36028 ft | 444 kts | 311° |
| 2026-05-06 10:20 | 41.31424 | 16.63757 | 36029 ft | 444 kts | 311° |
| 2026-05-06 10:20 | 41.35697 | 16.57800 | 36030 ft | 444 kts | 311° |
| 2026-05-06 10:21 | 41.39964 | 16.51910 | 36029 ft | 445 kts | 312° |
| 2026-05-06 10:21 | 41.44294 | 16.46014 | 36031 ft | 445 kts | 312° |
| 2026-05-06 10:22 | 41.48626 | 16.40100 | 36030 ft | 446 kts | 312° |
| 2026-05-06 10:22 | 41.52943 | 16.34170 | 36029 ft | 446 kts | 312° |
| 2026-05-06 10:23 | 41.57264 | 16.28231 | 36028 ft | 446 kts | 312° |
| 2026-05-06 10:23 | 41.61579 | 16.22276 | 36031 ft | 446 kts | 312° |
| 2026-05-06 10:24 | 41.65891 | 16.16304 | 36034 ft | 446 kts | 312° |
| 2026-05-06 10:24 | 41.70196 | 16.10337 | 36034 ft | 446 kts | 312° |
| 2026-05-06 10:25 | 41.74498 | 16.04357 | 36032 ft | 446 kts | 312° |
| 2026-05-06 10:25 | 41.78803 | 15.98370 | 36026 ft | 446 kts | 311° |
| 2026-05-06 10:26 | 41.83068 | 15.92405 | 36020 ft | 446 kts | 311° |
| 2026-05-06 10:26 | 41.87363 | 15.86399 | 36022 ft | 446 kts | 311° |
| 2026-05-06 10:27 | 41.91696 | 15.80351 | 36024 ft | 446 kts | 311° |
| 2026-05-06 10:27 | 41.96245 | 15.74659 | 36025 ft | 448 kts | 317° |
| 2026-05-06 10:28 | 42.00944 | 15.69164 | 36026 ft | 448 kts | 317° |
| 2026-05-06 10:28 | 42.05643 | 15.63668 | 36028 ft | 448 kts | 317° |
| 2026-05-06 10:29 | 42.10338 | 15.58163 | 36023 ft | 447 kts | 317° |
| 2026-05-06 10:29 | 42.14994 | 15.52684 | 36023 ft | 447 kts | 316° |
| 2026-05-06 10:30 | 42.19678 | 15.47154 | 36024 ft | 448 kts | 316° |
| 2026-05-06 10:30 | 42.24370 | 15.41613 | 36030 ft | 448 kts | 316° |
| 2026-05-06 10:31 | 42.29056 | 15.36063 | 36032 ft | 448 kts | 316° |
| 2026-05-06 10:31 | 42.33741 | 15.30499 | 36031 ft | 448 kts | 316° |
| 2026-05-06 10:32 | 42.38421 | 15.24931 | 36029 ft | 448 kts | 316° |
| 2026-05-06 10:32 | 42.43109 | 15.19354 | 36027 ft | 448 kts | 316° |
| 2026-05-06 10:33 | 42.47791 | 15.13774 | 36021 ft | 449 kts | 316° |
| 2026-05-06 10:33 | 42.52472 | 15.08173 | 36016 ft | 449 kts | 316° |
| 2026-05-06 10:34 | 42.57141 | 15.02568 | 36011 ft | 449 kts | 316° |
| 2026-05-06 10:34 | 42.61824 | 14.96953 | 36005 ft | 449 kts | 316° |
| 2026-05-06 10:35 | 42.66504 | 14.91327 | 36007 ft | 449 kts | 316° |
| 2026-05-06 10:35 | 42.70794 | 14.85210 | 36008 ft | 447 kts | 309° |
| 2026-05-06 10:36 | 42.74909 | 14.78881 | 36005 ft | 447 kts | 309° |
| 2026-05-06 10:36 | 42.79021 | 14.72543 | 35997 ft | 446 kts | 309° |
| 2026-05-06 10:37 | 42.83125 | 14.66202 | 35995 ft | 446 kts | 309° |
| 2026-05-06 10:37 | 42.87226 | 14.59850 | 35989 ft | 446 kts | 309° |
| 2026-05-06 10:38 | 42.91322 | 14.53485 | 35989 ft | 446 kts | 309° |
| 2026-05-06 10:38 | 42.95424 | 14.47126 | 35990 ft | 447 kts | 309° |
| 2026-05-06 10:39 | 42.99527 | 14.40745 | 35992 ft | 447 kts | 309° |
| 2026-05-06 10:39 | 43.03617 | 14.34359 | 35994 ft | 447 kts | 309° |
| 2026-05-06 10:40 | 43.07711 | 14.27965 | 35989 ft | 447 kts | 309° |
| 2026-05-06 10:40 | 43.11796 | 14.21560 | 35994 ft | 447 kts | 308° |
| 2026-05-06 10:41 | 43.15839 | 14.15181 | 35996 ft | 446 kts | 308° |
| 2026-05-06 10:41 | 43.19907 | 14.08767 | 35988 ft | 446 kts | 308° |
| 2026-05-06 10:42 | 43.23986 | 14.02351 | 35992 ft | 447 kts | 308° |
| 2026-05-06 10:42 | 43.28070 | 13.95923 | 35994 ft | 447 kts | 308° |
| 2026-05-06 10:43 | 43.32142 | 13.89486 | 35989 ft | 446 kts | 308° |
| 2026-05-06 10:44 | 43.38230 | 13.79825 | 35989 ft | 446 kts | 308° |
| 2026-05-06 10:44 | 43.42293 | 13.73375 | 35983 ft | 446 kts | 309° |
| 2026-05-06 10:45 | 43.46494 | 13.67063 | 35989 ft | 448 kts | 310° |
| 2026-05-06 10:45 | 43.50773 | 13.60834 | 35991 ft | 448 kts | 310° |
| 2026-05-06 10:46 | 43.55025 | 13.54574 | 35983 ft | 447 kts | 310° |
| 2026-05-06 10:46 | 43.59206 | 13.48321 | 35982 ft | 447 kts | 310° |
| 2026-05-06 10:47 | 43.63406 | 13.41999 | 35978 ft | 446 kts | 310° |
| 2026-05-06 10:47 | 43.67609 | 13.35692 | 35973 ft | 446 kts | 310° |
| 2026-05-06 10:48 | 43.71816 | 13.29388 | 35974 ft | 446 kts | 310° |
| 2026-05-06 10:48 | 43.76018 | 13.23067 | 35973 ft | 446 kts | 309° |
| 2026-05-06 10:49 | 43.80206 | 13.16733 | 35972 ft | 446 kts | 309° |
| 2026-05-06 10:49 | 43.84397 | 13.10385 | 35974 ft | 446 kts | 309° |
| 2026-05-06 10:50 | 43.88579 | 13.04034 | 35970 ft | 446 kts | 309° |
| 2026-05-06 10:50 | 43.92755 | 12.97672 | 35968 ft | 446 kts | 309° |
| 2026-05-06 10:51 | 43.96936 | 12.91313 | 35969 ft | 446 kts | 309° |
| 2026-05-06 10:51 | 44.01119 | 12.84942 | 35964 ft | 446 kts | 309° |
| 2026-05-06 10:52 | 44.05290 | 12.78571 | 35963 ft | 446 kts | 309° |
| 2026-05-06 10:52 | 44.09448 | 12.72186 | 35963 ft | 445 kts | 309° |
| 2026-05-06 10:53 | 44.13574 | 12.65835 | 35963 ft | 445 kts | 309° |
| 2026-05-06 10:53 | 44.17715 | 12.59444 | 35960 ft | 445 kts | 308° |
| 2026-05-06 10:54 | 44.21770 | 12.52950 | 35957 ft | 443 kts | 307° |
| 2026-05-06 10:54 | 44.25734 | 12.46355 | 35954 ft | 443 kts | 306° |
| 2026-05-06 10:55 | 44.29691 | 12.39762 | 35954 ft | 443 kts | 307° |
| 2026-05-06 10:55 | 44.33660 | 12.33197 | 35946 ft | 443 kts | 307° |
| 2026-05-06 10:56 | 44.37634 | 12.26614 | 35937 ft | 443 kts | 307° |
| 2026-05-06 10:56 | 44.41607 | 12.20032 | 35929 ft | 443 kts | 307° |
| 2026-05-06 10:57 | 44.45583 | 12.13438 | 35922 ft | 443 kts | 307° |
| 2026-05-06 10:57 | 44.49546 | 12.06830 | 35917 ft | 443 kts | 307° |
| 2026-05-06 10:58 | 44.53505 | 12.00209 | 35915 ft | 443 kts | 306° |
| 2026-05-06 10:58 | 44.57462 | 11.93570 | 35912 ft | 444 kts | 306° |
| 2026-05-06 10:59 | 44.61427 | 11.86931 | 35913 ft | 444 kts | 306° |
| 2026-05-06 10:59 | 44.65389 | 11.80275 | 35915 ft | 444 kts | 306° |
| 2026-05-06 11:00 | 44.69321 | 11.73652 | 35914 ft | 444 kts | 306° |
| 2026-05-06 11:00 | 44.72626 | 11.68058 | 35913 ft | 444 kts | 306° |
| 2026-05-06 11:01 | 44.76568 | 11.61368 | 35911 ft | 444 kts | 306° |
| 2026-05-06 11:01 | 44.80510 | 11.54671 | 35911 ft | 445 kts | 306° |
| 2026-05-06 11:02 | 44.84459 | 11.47967 | 35911 ft | 445 kts | 306° |
| 2026-05-06 11:02 | 44.88407 | 11.41249 | 35914 ft | 445 kts | 306° |
| 2026-05-06 11:03 | 44.92365 | 11.34534 | 35915 ft | 445 kts | 306° |
| 2026-05-06 11:03 | 44.96383 | 11.27883 | 35912 ft | 445 kts | 307° |
| 2026-05-06 11:04 | 45.00410 | 11.21234 | 35913 ft | 445 kts | 306° |
| 2026-05-06 11:04 | 45.04393 | 11.14603 | 35913 ft | 445 kts | 306° |
| 2026-05-06 11:05 | 45.08396 | 11.07911 | 35914 ft | 446 kts | 306° |
| 2026-05-06 11:05 | 45.12394 | 11.01201 | 35918 ft | 446 kts | 306° |
| 2026-05-06 11:06 | 45.16391 | 10.94489 | 35917 ft | 446 kts | 306° |
| 2026-05-06 11:06 | 45.20387 | 10.87764 | 35919 ft | 446 kts | 306° |
| 2026-05-06 11:07 | 45.24667 | 10.81360 | 35918 ft | 452 kts | 316° |
| 2026-05-06 11:07 | 45.29546 | 10.75731 | 35917 ft | 452 kts | 316° |
| 2026-05-06 11:08 | 45.34435 | 10.70093 | 35920 ft | 453 kts | 316° |
| 2026-05-06 11:08 | 45.39325 | 10.64440 | 35924 ft | 453 kts | 316° |
| 2026-05-06 11:09 | 45.44208 | 10.58775 | 35918 ft | 453 kts | 316° |
| 2026-05-06 11:09 | 45.49090 | 10.53082 | 35912 ft | 453 kts | 316° |
| 2026-05-06 11:10 | 45.53962 | 10.47382 | 35908 ft | 453 kts | 316° |
| 2026-05-06 11:10 | 45.58845 | 10.41683 | 35903 ft | 454 kts | 316° |
| 2026-05-06 11:11 | 45.63702 | 10.36007 | 35903 ft | 454 kts | 316° |
| 2026-05-06 11:11 | 45.68582 | 10.30278 | 35903 ft | 454 kts | 316° |
| 2026-05-06 11:12 | 45.73460 | 10.24541 | 35904 ft | 454 kts | 316° |
| 2026-05-06 11:12 | 45.78342 | 10.18784 | 35901 ft | 455 kts | 315° |
| 2026-05-06 11:13 | 45.83221 | 10.13016 | 35900 ft | 455 kts | 315° |
| 2026-05-06 11:13 | 45.88090 | 10.07242 | 35900 ft | 455 kts | 315° |
| 2026-05-06 11:14 | 45.92966 | 10.01448 | 35899 ft | 454 kts | 315° |
| 2026-05-06 11:14 | 45.97829 | 9.95647 | 35898 ft | 454 kts | 315° |
| 2026-05-06 11:15 | 46.02684 | 9.89839 | 35895 ft | 454 kts | 315° |
| 2026-05-06 11:15 | 46.07542 | 9.84028 | 35891 ft | 454 kts | 315° |
| 2026-05-06 11:16 | 46.12396 | 9.78216 | 35886 ft | 454 kts | 315° |
| 2026-05-06 11:16 | 46.17253 | 9.72379 | 35882 ft | 454 kts | 315° |
| 2026-05-06 11:17 | 46.22068 | 9.66567 | 35883 ft | 455 kts | 315° |
| 2026-05-06 11:17 | 46.26919 | 9.60710 | 35881 ft | 455 kts | 315° |
| 2026-05-06 11:18 | 46.31775 | 9.54839 | 35883 ft | 455 kts | 315° |
| 2026-05-06 11:18 | 46.36627 | 9.48955 | 35881 ft | 455 kts | 315° |
| 2026-05-06 11:19 | 46.41471 | 9.43046 | 35873 ft | 456 kts | 315° |
| 2026-05-06 11:19 | 46.46324 | 9.37127 | 35880 ft | 456 kts | 315° |
| 2026-05-06 11:20 | 46.51181 | 9.31194 | 35576 ft | 457 kts | 315° |
| 2026-05-06 11:20 | 46.53609 | 9.28224 | 35316 ft | 457 kts | 315° |
| 2026-05-06 11:20 | 46.56161 | 9.25421 | 34324 ft | 468 kts | 325° |
| 2026-05-06 11:20 | 46.59037 | 9.23094 | 33081 ft | 477 kts | 327° |
| 2026-05-06 11:21 | 46.61963 | 9.20795 | 32034 ft | 479 kts | 327° |
| 2026-05-06 11:21 | 46.64904 | 9.18511 | 30987 ft | 480 kts | 328° |
| 2026-05-06 11:21 | 46.67857 | 9.16222 | 29806 ft | 481 kts | 328° |
| 2026-05-06 11:21 | 46.70815 | 9.13914 | 28553 ft | 484 kts | 328° |
| 2026-05-06 11:22 | 46.73782 | 9.11580 | 27265 ft | 486 kts | 328° |
| 2026-05-06 11:22 | 46.76753 | 9.09229 | 25969 ft | 487 kts | 328° |
| 2026-05-06 11:22 | 46.79731 | 9.06867 | 24670 ft | 488 kts | 329° |
| 2026-05-06 11:22 | 46.82710 | 9.04507 | 23374 ft | 487 kts | 329° |
| 2026-05-06 11:23 | 46.85692 | 9.02143 | 22164 ft | 487 kts | 329° |
| 2026-05-06 11:23 | 46.88643 | 8.99803 | 21306 ft | 478 kts | 329° |
| 2026-05-06 11:23 | 46.91557 | 8.97486 | 20467 ft | 472 kts | 329° |
| 2026-05-06 11:23 | 46.94414 | 8.95208 | 19649 ft | 465 kts | 329° |
| 2026-05-06 11:24 | 46.97237 | 8.92953 | 18789 ft | 460 kts | 330° |
| 2026-05-06 11:24 | 47.00026 | 8.90728 | 17905 ft | 450 kts | 330° |
| 2026-05-06 11:24 | 47.02742 | 8.88564 | 16757 ft | 440 kts | 330° |
| 2026-05-06 11:24 | 47.05372 | 8.86466 | 16076 ft | 434 kts | 330° |
| 2026-05-06 11:25 | 47.08016 | 8.84348 | 15323 ft | 432 kts | 330° |
| 2026-05-06 11:25 | 47.10636 | 8.82241 | 14588 ft | 428 kts | 330° |
| 2026-05-06 11:25 | 47.13239 | 8.80145 | 13875 ft | 424 kts | 330° |
| 2026-05-06 11:25 | 47.15814 | 8.78072 | 13181 ft | 420 kts | 330° |
| 2026-05-06 11:26 | 47.18371 | 8.76014 | 12515 ft | 416 kts | 330° |
| 2026-05-06 11:26 | 47.20894 | 8.73984 | 11832 ft | 411 kts | 330° |
| 2026-05-06 11:26 | 47.23389 | 8.71975 | 11195 ft | 405 kts | 330° |
| 2026-05-06 11:26 | 47.25809 | 8.70021 | 11035 ft | 387 kts | 330° |
| 2026-05-06 11:27 | 47.28125 | 8.68198 | 10907 ft | 369 kts | 332° |
| 2026-05-06 11:27 | 47.30377 | 8.66578 | 10779 ft | 353 kts | 334° |
| 2026-05-06 11:27 | 47.32563 | 8.65102 | 10642 ft | 338 kts | 335° |
| 2026-05-06 11:27 | 47.34662 | 8.63720 | 10527 ft | 325 kts | 335° |
| 2026-05-06 11:28 | 47.36687 | 8.62385 | 10400 ft | 312 kts | 335° |
| 2026-05-06 11:28 | 47.38560 | 8.60883 | 10232 ft | 302 kts | 329° |
| 2026-05-06 11:28 | 47.40353 | 8.59314 | 10042 ft | 296 kts | 328° |
| 2026-05-06 11:28 | 47.42116 | 8.57759 | 9977 ft | 296 kts | 328° |
| 2026-05-06 11:29 | 47.43880 | 8.56197 | 9867 ft | 295 kts | 328° |
| 2026-05-06 11:29 | 47.45640 | 8.54635 | 9562 ft | 298 kts | 328° |
| 2026-05-06 11:29 | 47.47258 | 8.52752 | 9186 ft | 294 kts | 306° |
| 2026-05-06 11:29 | 47.48210 | 8.50110 | 8773 ft | 294 kts | 295° |
| 2026-05-06 11:30 | 47.49417 | 8.47731 | 8402 ft | 290 kts | 323° |
| 2026-05-06 11:30 | 47.51247 | 8.46582 | 8039 ft | 286 kts | 347° |
| 2026-05-06 11:30 | 47.53196 | 8.46043 | 7679 ft | 283 kts | 351° |
| 2026-05-06 11:30 | 47.55132 | 8.45563 | 7323 ft | 282 kts | 350° |
| 2026-05-06 11:31 | 47.57050 | 8.45017 | 7007 ft | 278 kts | 348° |
| 2026-05-06 11:31 | 47.58947 | 8.44384 | 6750 ft | 280 kts | 346° |
| 2026-05-06 11:31 | 47.60832 | 8.43676 | 6406 ft | 279 kts | 345° |
| 2026-05-06 11:31 | 47.62696 | 8.42919 | 6048 ft | 277 kts | 344° |
| 2026-05-06 11:32 | 47.64532 | 8.42132 | 5702 ft | 272 kts | 341° |
| 2026-05-06 11:32 | 47.66069 | 8.40684 | 5527 ft | 259 kts | 309° |
| 2026-05-06 11:32 | 47.66743 | 8.38323 | 5372 ft | 246 kts | 273° |
| 2026-05-06 11:32 | 47.66415 | 8.35929 | 5233 ft | 235 kts | 240° |
| 2026-05-06 11:33 | 47.65314 | 8.34250 | 5096 ft | 225 kts | 208° |
| 2026-05-06 11:33 | 47.63851 | 8.33677 | 4969 ft | 215 kts | 178° |
| 2026-05-06 11:33 | 47.62448 | 8.34229 | 4849 ft | 208 kts | 148° |
| 2026-05-06 11:33 | 47.61353 | 8.35563 | 4771 ft | 207 kts | 136° |
| 2026-05-06 11:34 | 47.60290 | 8.37036 | 4607 ft | 207 kts | 136° |
| 2026-05-06 11:34 | 47.59253 | 8.38467 | 4327 ft | 206 kts | 137° |
| 2026-05-06 11:34 | 47.58204 | 8.39908 | 4062 ft | 205 kts | 137° |
| 2026-05-06 11:34 | 47.57162 | 8.41340 | 3794 ft | 202 kts | 137° |
| 2026-05-06 11:35 | 47.56146 | 8.42736 | 3529 ft | 196 kts | 137° |
| 2026-05-06 11:35 | 47.55159 | 8.44090 | 3276 ft | 191 kts | 137° |
| 2026-05-06 11:35 | 47.54199 | 8.45405 | 3023 ft | 183 kts | 137° |
| 2026-05-06 11:35 | 47.53295 | 8.46644 | 2774 ft | 171 kts | 137° |
| 2026-05-06 11:36 | 47.52467 | 8.47779 | 2571 ft | 156 kts | 137° |
| 2026-05-06 11:36 | 47.51690 | 8.48842 | 2372 ft | 150 kts | 137° |
| 2026-05-06 11:36 | 47.50937 | 8.49873 | 2172 ft | 146 kts | 137° |
| 2026-05-06 11:36 | 47.50191 | 8.50890 | 1986 ft | 145 kts | 138° |
| 2026-05-06 11:37 | 47.49453 | 8.51895 | 1791 ft | 145 kts | 137° |
| 2026-05-06 11:37 | 47.48716 | 8.52909 | 1581 ft | 144 kts | 137° |
| 2026-05-06 11:37 | 47.47983 | 8.53916 | 1408 ft | 140 kts | 137° |
| 2026-05-06 11:37 | 47.47376 | 8.54744 | 1387 ft | 95 kts | 137° |
| 2026-05-06 11:38 | 47.46952 | 8.55322 | 1387 ft | 75 kts | 137° |
| 2026-05-06 11:38 | 47.46656 | 8.55728 | 1394 ft | 39 kts | 137° |
| 2026-05-06 11:38 | 47.46500 | 8.55899 | 1396 ft | 25 kts | 158° |
| 2026-05-06 11:38 | 47.46338 | 8.55968 | 1400 ft | 23 kts | 168° |
| 2026-05-06 11:39 | 47.46189 | 8.56003 | 1406 ft | 20 kts | 183° |
| 2026-05-06 11:39 | 47.46050 | 8.55982 | 1411 ft | 20 kts | 186° |
| 2026-05-06 11:39 | 47.45913 | 8.55942 | 1407 ft | 19 kts | 198° |
| 2026-05-06 11:39 | 47.45794 | 8.55884 | 1413 ft | 18 kts | 193° |
| 2026-05-06 11:40 | 47.45673 | 8.55862 | 1408 ft | 15 kts | 186° |
| 2026-05-06 11:40 | 47.45647 | 8.55737 | 1411 ft | 16 kts | 277° |
| 2026-05-06 11:40 | 47.45661 | 8.55561 | 1403 ft | 19 kts | 275° |
| 2026-05-06 11:40 | 47.45675 | 8.55358 | 1400 ft | 21 kts | 276° |
| 2026-05-06 11:41 | 47.45665 | 8.55178 | 1398 ft | 17 kts | 211° |
| 2026-05-06 11:41 | 47.45579 | 8.55244 | 1404 ft | 13 kts | 152° |
| 2026-05-06 11:41 | 47.45512 | 8.55293 | 1408 ft | 9 kts | 153° |
| 2026-05-06 11:41 | 47.45467 | 8.55326 | 1401 ft | 6 kts | 155° |
| 2026-05-06 11:42 | 47.45426 | 8.55354 | 1403 ft | 8 kts | 155° |
| 2026-05-06 11:42 | 47.45360 | 8.55399 | 1409 ft | 13 kts | 156° |
| 2026-05-06 11:42 | 47.45292 | 8.55511 | 1406 ft | 17 kts | 120° |
| 2026-05-06 11:42 | 47.45283 | 8.55637 | 1410 ft | 9 kts | 35° |
| 2026-05-06 11:43 | 47.45310 | 8.55642 | 1410 ft | 2 kts | 5° |
| 2026-05-06 11:43 | 47.45317 | 8.55642 | 1413 ft | 1 kts | 5° |
| 2026-05-06 11:43 | 47.45340 | 8.55646 | 1407 ft | 2 kts | 6° |
| 2026-05-06 11:44 | 47.45352 | 8.55648 | 1410 ft | 2 kts | 6° |
| 2026-05-06 11:44 | 47.45355 | 8.55648 | 1407 ft | 0 kts | 6° |